createdAt,value
2022-12-14T00:00:03.587Z,8.38
2022-12-14T00:02:42.147Z,9.75
2022-12-14T00:05:11.641Z,9.10
2022-12-14T00:07:41.807Z,9.93
2022-12-14T00:10:11.704Z,9.55
2022-12-14T00:12:40.989Z,8.00
2022-12-14T00:15:10.639Z,9.95
2022-12-14T00:17:39.845Z,9.70
2022-12-14T00:20:09.362Z,9.68
2022-12-14T00:22:38.562Z,8.18
2022-12-14T00:25:08.067Z,8.90
2022-12-14T00:27:37.342Z,9.40
2022-12-14T00:30:06.728Z,8.70
2022-12-14T00:32:36.778Z,9.40
2022-12-14T00:35:06.085Z,9.13
2022-12-14T00:37:35.453Z,8.88
2022-12-14T00:40:04.770Z,8.35
2022-12-14T00:42:34.030Z,9.68
2022-12-14T00:45:03.728Z,8.73
2022-12-14T00:47:38.976Z,7.50
2022-12-14T00:50:10.227Z,8.10
2022-12-14T00:52:39.477Z,8.23
2022-12-14T00:55:08.940Z,9.85
2022-12-14T00:57:38.175Z,8.55
2022-12-14T01:00:07.959Z,8.63
2022-12-14T01:02:37.265Z,7.40
2022-12-14T01:05:07.157Z,9.07
2022-12-14T01:07:36.395Z,8.15
2022-12-14T01:10:06.001Z,8.63
2022-12-14T01:12:35.201Z,8.85
2022-12-14T01:15:04.460Z,9.00
2022-12-14T01:17:33.782Z,8.27
2022-12-14T01:20:02.990Z,7.80
2022-12-14T01:22:32.256Z,7.82
2022-12-14T01:25:01.496Z,7.85
2022-12-14T01:27:30.801Z,7.57
2022-12-14T01:30:00.083Z,7.50
2022-12-14T01:32:29.386Z,7.40
2022-12-14T01:34:58.607Z,7.05
2022-12-14T01:37:28.903Z,8.40
2022-12-14T01:39:58.215Z,6.32
2022-12-14T01:42:27.459Z,7.28
2022-12-14T01:44:58.787Z,7.05
2022-12-14T01:47:33.033Z,8.13
2022-12-14T01:50:13.543Z,7.40
2022-12-14T01:52:46.756Z,6.28
2022-12-14T01:55:31.341Z,7.32
2022-12-14T01:58:00.664Z,7.18
2022-12-14T02:00:30.148Z,6.70
2022-12-14T02:03:08.258Z,7.82
2022-12-14T02:05:40.315Z,6.35
2022-12-14T02:08:10.329Z,7.10
2022-12-14T02:10:39.684Z,6.88
2022-12-14T02:13:17.040Z,6.72
2022-12-14T02:15:46.684Z,6.35
2022-12-14T02:18:19.719Z,7.43
2022-12-14T02:21:15.585Z,7.18
2022-12-14T02:24:06.049Z,7.13
2022-12-14T02:26:35.305Z,6.95
2022-12-14T02:29:05.176Z,6.70
2022-12-14T02:31:34.423Z,6.78
2022-12-14T02:34:16.566Z,7.22
2022-12-14T02:36:51.832Z,6.95
2022-12-14T02:39:40.724Z,7.75
2022-12-14T02:42:17.307Z,7.15
2022-12-14T02:44:52.541Z,6.82
2022-12-14T02:47:21.762Z,8.05
2022-12-14T02:49:57.274Z,7.00
2022-12-14T02:52:26.451Z,6.47
2022-12-14T02:55:19.994Z,7.65
2022-12-14T02:57:52.653Z,7.20
2022-12-14T03:00:23.097Z,6.75
2022-12-14T03:02:52.922Z,6.47
2022-12-14T03:05:22.863Z,7.60
2022-12-14T03:07:53.979Z,6.00
2022-12-14T03:10:23.916Z,6.72
2022-12-14T03:12:57.723Z,7.90
2022-12-14T03:15:28.743Z,6.97
2022-12-14T03:18:00.761Z,6.63
2022-12-14T03:20:31.697Z,7.80
2022-12-14T03:23:03.784Z,7.60
2022-12-14T03:25:36.452Z,6.80
2022-12-14T03:28:08.600Z,6.72
2022-12-14T03:30:59.416Z,7.57
2022-12-14T03:33:31.228Z,7.05
2022-12-14T03:38:33.845Z,7.43
2022-12-14T03:41:22.509Z,5.88
2022-12-14T03:44:10.631Z,6.18
2022-12-14T03:46:45.824Z,5.50
2022-12-14T03:49:15.087Z,6.93
2022-12-14T03:52:04.640Z,6.93
2022-12-14T03:54:45.457Z,5.95
2022-12-14T03:57:33.585Z,5.93
2022-12-14T04:00:07.808Z,6.70
2022-12-14T04:03:01.776Z,6.25
2022-12-14T04:05:37.309Z,7.68
2022-12-14T04:08:09.533Z,6.32
2022-12-14T04:10:54.921Z,5.95
2022-12-14T04:13:39.677Z,5.78
2022-12-14T04:16:24.545Z,5.90
2022-12-14T04:19:00.927Z,6.50
2022-12-14T04:21:48.375Z,6.45
2022-12-14T04:24:37.107Z,7.25
2022-12-14T04:27:18.817Z,6.35
2022-12-14T04:30:00.490Z,6.00
2022-12-14T04:32:40.446Z,6.80
2022-12-14T04:35:14.433Z,5.95
2022-12-14T04:37:45.593Z,7.20
2022-12-14T04:40:21.281Z,6.78
2022-12-14T04:45:30.651Z,5.68
2022-12-14T04:48:03.302Z,6.72
2022-12-14T04:50:38.778Z,6.55
2022-12-14T04:53:15.886Z,5.65
2022-12-14T04:55:45.108Z,6.70
2022-12-14T04:58:21.201Z,5.15
2022-12-14T05:00:56.761Z,6.13
2022-12-14T05:03:32.356Z,6.20
2022-12-14T05:06:07.602Z,5.93
2022-12-14T05:08:36.832Z,6.93
2022-12-14T05:11:48.004Z,5.22
2022-12-14T05:13:59.444Z,7.57
2022-12-14T05:16:28.727Z,7.20
2022-12-14T05:18:58.059Z,5.72
2022-12-14T05:21:39.795Z,5.80
2022-12-14T05:24:09.186Z,5.17
2022-12-14T05:26:38.380Z,6.07
2022-12-14T05:29:07.782Z,4.78
2022-12-14T05:31:37.083Z,6.55
2022-12-14T05:34:06.459Z,5.72
2022-12-14T05:36:35.695Z,5.72
2022-12-14T05:39:04.989Z,6.57
2022-12-14T05:41:34.239Z,5.80
2022-12-14T05:44:03.542Z,6.63
2022-12-14T05:46:32.755Z,5.40
2022-12-14T05:49:02.251Z,6.43
2022-12-14T05:51:31.458Z,5.00
2022-12-14T05:54:00.874Z,6.55
2022-12-14T05:56:30.109Z,5.85
2022-12-14T05:58:59.522Z,6.05
2022-12-14T06:01:28.824Z,5.18
2022-12-14T06:03:58.231Z,5.72
2022-12-14T06:06:27.566Z,5.45
2022-12-14T06:08:56.804Z,6.47
2022-12-14T06:11:26.416Z,5.65
2022-12-14T06:13:55.676Z,5.35
2022-12-14T06:16:26.601Z,5.93
2022-12-14T06:18:57.175Z,6.82
2022-12-14T06:21:28.407Z,5.05
2022-12-14T06:23:58.271Z,5.82
2022-12-14T06:26:28.053Z,5.75
2022-12-14T06:28:57.896Z,5.72
2022-12-14T06:31:28.862Z,5.47
2022-12-14T06:33:59.668Z,6.55
2022-12-14T06:36:36.488Z,4.90
2022-12-14T06:39:07.422Z,5.57
2022-12-14T06:41:36.687Z,5.30
2022-12-14T06:44:08.389Z,5.63
2022-12-14T06:46:38.900Z,5.40
2022-12-14T06:49:08.872Z,6.20
2022-12-14T06:51:42.620Z,5.30
2022-12-14T06:54:13.004Z,6.05
2022-12-14T06:56:42.940Z,4.75
2022-12-14T06:59:13.219Z,6.10
2022-12-14T07:01:43.186Z,5.03
2022-12-14T07:04:12.624Z,5.50
2022-12-14T07:06:42.833Z,5.68
2022-12-14T07:09:14.849Z,4.75
2022-12-14T07:11:44.303Z,6.68
2022-12-14T07:14:20.697Z,5.80
2022-12-14T07:16:50.333Z,4.50
2022-12-14T07:19:20.250Z,4.80
2022-12-14T07:21:49.533Z,6.82
2022-12-14T07:24:18.836Z,5.22
2022-12-14T07:26:48.134Z,5.90
2022-12-14T07:29:17.789Z,5.65
2022-12-14T07:31:49.409Z,5.68
2022-12-14T07:34:19.160Z,4.97
2022-12-14T07:36:48.666Z,5.00
2022-12-14T07:39:17.972Z,7.53
2022-12-14T07:41:48.179Z,7.60
2022-12-14T07:44:23.345Z,5.57
2022-12-14T07:46:52.862Z,6.65
2022-12-14T07:49:22.161Z,4.93
2022-12-14T07:51:53.081Z,5.60
2022-12-14T07:54:22.396Z,4.85
2022-12-14T07:56:51.632Z,4.97
2022-12-14T07:59:20.934Z,5.15
2022-12-14T08:01:50.643Z,5.75
2022-12-14T08:04:21.288Z,4.85
2022-12-14T08:06:51.201Z,5.18
2022-12-14T08:09:20.582Z,5.35
2022-12-14T08:11:50.269Z,6.07
2022-12-14T08:14:20.379Z,5.60
2022-12-14T08:16:50.682Z,5.32
2022-12-14T08:19:20.889Z,6.13
2022-12-14T08:21:50.279Z,5.20
2022-12-14T08:24:19.613Z,5.38
2022-12-14T08:26:49.468Z,4.72
2022-12-14T08:29:19.344Z,5.25
2022-12-14T08:31:48.715Z,5.65
2022-12-14T08:34:22.787Z,5.90
2022-12-14T08:36:52.329Z,3.88
2022-12-14T08:39:21.658Z,5.57
2022-12-14T08:41:51.020Z,5.60
2022-12-14T08:44:20.323Z,5.45
2022-12-14T08:46:49.652Z,5.28
2022-12-14T08:49:18.969Z,5.15
2022-12-14T08:51:48.651Z,5.88
2022-12-14T08:54:18.812Z,5.25
2022-12-14T08:56:48.099Z,4.63
2022-12-14T08:59:37.012Z,5.10
2022-12-14T09:02:07.981Z,5.45
2022-12-14T09:04:37.606Z,5.55
2022-12-14T09:07:06.876Z,6.30
2022-12-14T09:09:37.987Z,4.70
2022-12-14T09:12:08.509Z,4.75
2022-12-14T09:14:37.877Z,4.80
2022-12-14T09:17:07.628Z,4.78
2022-12-14T09:19:36.906Z,6.30
2022-12-14T09:22:06.522Z,6.10
2022-12-14T09:24:36.574Z,4.60
2022-12-14T09:27:06.237Z,5.07
2022-12-14T09:29:35.754Z,4.93
2022-12-14T09:32:05.045Z,5.28
2022-12-14T09:34:34.397Z,5.38
2022-12-14T09:37:04.757Z,5.25
2022-12-14T09:39:34.663Z,5.15
2022-12-14T09:42:10.195Z,5.75
2022-12-14T09:44:46.257Z,5.00
2022-12-14T09:47:15.491Z,5.25
2022-12-14T09:49:50.846Z,5.88
2022-12-14T09:52:36.692Z,5.90
2022-12-14T09:55:18.270Z,6.35
2022-12-14T09:57:48.189Z,6.32
2022-12-14T10:00:21.747Z,6.65
2022-12-14T10:03:04.658Z,6.05
2022-12-14T10:05:38.998Z,5.07
2022-12-14T10:08:13.436Z,6.03
2022-12-14T10:10:50.756Z,6.05
2022-12-14T10:13:28.647Z,5.10
2022-12-14T10:16:17.830Z,6.15
2022-12-14T10:19:07.737Z,6.47
2022-12-14T10:21:52.384Z,6.28
2022-12-14T10:24:27.164Z,7.03
2022-12-14T10:26:57.244Z,6.05
2022-12-14T10:29:31.634Z,5.55
2022-12-14T10:32:18.758Z,5.45
2022-12-14T10:34:48.004Z,5.25
2022-12-14T10:37:17.246Z,6.03
2022-12-14T10:39:52.627Z,6.63
2022-12-14T10:42:23.292Z,6.72
2022-12-14T10:45:42.351Z,4.88
2022-12-14T10:48:19.712Z,6.32
2022-12-14T10:51:15.417Z,6.13
2022-12-14T10:53:49.554Z,6.07
2022-12-14T10:56:36.516Z,6.25
2022-12-14T10:59:20.664Z,5.45
2022-12-14T11:01:56.297Z,5.57
2022-12-14T11:04:30.968Z,6.32
2022-12-14T11:07:01.272Z,6.25
2022-12-14T11:09:30.897Z,6.72
2022-12-14T11:12:01.645Z,7.30
2022-12-14T11:14:31.173Z,5.63
2022-12-14T11:17:00.617Z,5.70
2022-12-14T11:19:30.345Z,5.40
2022-12-14T11:22:28.800Z,6.20
2022-12-14T11:24:58.167Z,4.90
2022-12-14T11:27:27.566Z,5.43
2022-12-14T11:29:56.860Z,5.57
2022-12-14T11:32:27.359Z,6.80
2022-12-14T11:34:59.214Z,6.50
2022-12-14T11:37:33.506Z,6.28
2022-12-14T11:40:08.253Z,6.63
2022-12-14T11:42:39.323Z,6.43
2022-12-14T11:45:22.610Z,5.15
2022-12-14T11:48:11.825Z,5.25
2022-12-14T11:50:41.190Z,4.47
2022-12-14T11:53:14.613Z,6.00
2022-12-14T11:55:47.288Z,5.72
2022-12-14T11:58:29.190Z,4.63
2022-12-14T12:01:01.214Z,6.05
2022-12-14T12:03:33.650Z,5.20
2022-12-14T12:08:34.723Z,4.90
2022-12-14T12:11:05.286Z,5.07
2022-12-14T12:13:34.571Z,5.40
2022-12-14T12:16:08.548Z,5.68
2022-12-14T12:18:52.437Z,5.40
2022-12-14T12:21:24.006Z,5.35
2022-12-14T12:24:00.225Z,5.40
2022-12-14T12:26:35.655Z,4.95
2022-12-14T12:29:08.064Z,5.78
2022-12-14T12:34:19.712Z,6.28
2022-12-14T12:37:17.531Z,5.43
2022-12-14T12:39:39.859Z,6.38
2022-12-14T12:42:24.548Z,5.43
2022-12-14T12:45:10.491Z,6.03
2022-12-14T12:47:47.793Z,5.30
2022-12-14T12:50:25.489Z,4.65
2022-12-14T12:53:04.467Z,5.93
2022-12-14T12:55:37.319Z,5.28
2022-12-14T12:58:10.064Z,5.95
2022-12-14T13:00:40.868Z,5.57
2022-12-14T13:03:18.817Z,5.80
2022-12-14T13:05:51.682Z,6.68
2022-12-14T13:08:27.163Z,5.95
2022-12-14T13:13:49.898Z,6.05
2022-12-14T13:16:26.868Z,6.88
2022-12-14T13:24:21.456Z,6.40
2022-12-14T13:27:05.853Z,5.45
2022-12-14T13:29:38.243Z,5.78
2022-12-14T13:32:14.713Z,6.45
2022-12-14T13:34:55.443Z,6.10
2022-12-14T13:37:34.016Z,5.45
2022-12-14T13:40:13.654Z,6.43
2022-12-14T13:43:01.459Z,6.63
2022-12-14T13:45:32.784Z,5.97
2022-12-14T13:48:02.286Z,5.53
2022-12-14T13:50:36.538Z,6.05
2022-12-14T13:53:07.969Z,5.63
2022-12-14T13:55:39.979Z,6.63
2022-12-14T13:58:15.356Z,6.13
2022-12-14T14:00:47.855Z,5.88
2022-12-14T14:05:48.460Z,4.97
2022-12-14T14:08:37.649Z,5.57
2022-12-14T14:11:38.729Z,5.47
2022-12-14T14:14:38.190Z,5.38
2022-12-14T14:17:14.822Z,5.43
2022-12-14T14:19:49.600Z,6.53
2022-12-14T14:22:27.347Z,5.65
2022-12-14T14:25:01.198Z,6.30
2022-12-14T14:27:51.350Z,5.13
2022-12-14T14:30:39.827Z,5.90
2022-12-14T14:33:48.565Z,6.07
2022-12-14T14:36:30.430Z,5.75
2022-12-14T14:39:01.492Z,6.35
2022-12-14T14:41:40.313Z,6.28
2022-12-14T14:44:18.730Z,6.75
2022-12-14T14:46:49.895Z,6.90
2022-12-14T14:49:25.339Z,6.30
2022-12-14T14:51:54.642Z,6.10
2022-12-14T14:55:06.915Z,5.55
2022-12-14T14:57:31.637Z,5.68
2022-12-14T15:00:04.310Z,5.97
2022-12-14T15:02:35.408Z,6.43
2022-12-14T15:08:00.532Z,5.55
2022-12-14T15:10:32.648Z,5.82
2022-12-14T15:13:06.481Z,6.57
2022-12-14T15:15:38.502Z,5.75
2022-12-14T15:18:26.618Z,6.45
2022-12-14T15:20:55.912Z,6.22
2022-12-14T15:23:25.732Z,5.40
2022-12-14T15:26:02.687Z,6.53
2022-12-14T15:28:32.231Z,5.85
2022-12-14T15:31:01.770Z,6.15
2022-12-14T15:33:36.721Z,6.40
2022-12-14T15:36:17.670Z,6.40
2022-12-14T15:38:57.529Z,6.15
2022-12-14T15:41:32.358Z,6.18
2022-12-14T15:44:02.189Z,6.63
2022-12-14T15:46:35.991Z,6.10
2022-12-14T15:49:08.360Z,6.18
2022-12-14T15:51:45.496Z,6.32
2022-12-14T15:54:18.004Z,6.38
2022-12-14T15:59:22.523Z,6.38
2022-12-14T16:01:57.908Z,5.78
2022-12-14T16:04:31.655Z,5.13
2022-12-14T16:07:09.398Z,6.40
2022-12-14T16:09:51.181Z,6.30
2022-12-14T16:12:33.389Z,6.13
2022-12-14T16:15:03.374Z,6.28
2022-12-14T16:17:34.830Z,6.55
2022-12-14T16:20:22.985Z,6.57
2022-12-14T16:23:01.410Z,6.00
2022-12-14T16:25:31.564Z,7.30
2022-12-14T16:28:18.125Z,6.75
2022-12-14T16:31:01.615Z,6.55
2022-12-14T16:33:32.254Z,6.05
2022-12-14T16:36:04.016Z,5.75
2022-12-14T16:38:33.458Z,5.97
2022-12-14T16:41:04.241Z,7.13
2022-12-14T16:43:40.915Z,7.13
2022-12-14T16:46:14.945Z,6.78
2022-12-14T16:48:46.312Z,7.35
2022-12-14T16:51:44.515Z,7.13
2022-12-14T16:54:24.776Z,7.47
2022-12-14T16:56:57.364Z,7.35
2022-12-14T16:59:46.123Z,7.10
2022-12-14T17:02:44.883Z,6.70
2022-12-14T17:05:19.156Z,6.22
2022-12-14T17:07:48.533Z,6.95
2022-12-14T17:10:27.503Z,6.13
2022-12-14T17:13:00.881Z,6.68
2022-12-14T17:15:32.473Z,7.63
2022-12-14T17:18:02.702Z,7.28
2022-12-14T17:20:33.571Z,7.22
2022-12-14T17:23:03.996Z,7.90
2022-12-14T17:25:35.611Z,6.00
2022-12-14T17:28:04.951Z,8.07
2022-12-14T17:30:34.305Z,7.55
2022-12-14T17:33:03.704Z,7.72
2022-12-14T17:35:33.757Z,8.00
2022-12-14T17:38:03.070Z,8.02
2022-12-14T17:40:32.594Z,8.07
2022-12-14T17:43:02.061Z,6.88
2022-12-14T17:45:32.738Z,8.68
2022-12-14T17:48:02.168Z,9.40
2022-12-14T17:50:32.266Z,11.57
2022-12-14T17:53:01.947Z,11.80
2022-12-14T17:55:32.595Z,10.52
2022-12-14T17:58:02.548Z,9.68
2022-12-14T18:00:45.968Z,9.25
2022-12-14T18:03:17.196Z,9.82
2022-12-14T18:05:49.507Z,9.70
2022-12-14T18:08:22.535Z,9.27
2022-12-14T18:11:05.473Z,9.30
2022-12-14T18:13:37.053Z,8.27
2022-12-14T18:16:06.715Z,10.40
2022-12-14T18:18:36.395Z,8.50
2022-12-14T18:21:07.814Z,7.93
2022-12-14T18:23:37.064Z,8.65
2022-12-14T18:26:06.357Z,9.35
2022-12-14T18:28:36.832Z,8.85
2022-12-14T18:31:08.994Z,9.65
2022-12-14T18:33:39.349Z,10.05
2022-12-14T18:36:08.698Z,9.95
2022-12-14T18:38:38.439Z,11.20
2022-12-14T18:41:08.505Z,10.48
2022-12-14T18:43:43.463Z,10.45
2022-12-14T18:46:13.604Z,10.93
2022-12-14T18:48:43.630Z,10.23
2022-12-14T18:51:23.209Z,11.65
2022-12-14T18:53:56.653Z,10.25
2022-12-14T18:56:28.198Z,10.23
2022-12-14T18:58:57.697Z,13.65
2022-12-14T19:01:27.946Z,13.02
2022-12-14T19:03:57.856Z,10.95
2022-12-14T19:06:44.148Z,12.02
2022-12-14T19:09:14.796Z,8.98
2022-12-14T19:11:44.507Z,11.30
2022-12-14T19:14:14.195Z,11.30
2022-12-14T19:16:43.614Z,11.43
2022-12-14T19:19:13.047Z,11.30
2022-12-14T19:21:42.321Z,12.90
2022-12-14T19:24:13.750Z,11.93
2022-12-14T19:26:43.288Z,10.23
2022-12-14T19:29:18.689Z,10.50
2022-12-14T19:31:51.839Z,10.05
2022-12-14T19:34:23.488Z,12.77
2022-12-14T19:36:52.725Z,10.57
2022-12-14T19:39:22.082Z,11.45
2022-12-14T19:41:51.368Z,11.77
2022-12-14T19:44:20.794Z,11.73
2022-12-14T19:46:50.127Z,12.82
2022-12-14T19:49:19.652Z,10.90
2022-12-14T19:51:48.954Z,11.52
2022-12-14T19:54:18.300Z,11.43
2022-12-14T19:56:49.269Z,10.60
2022-12-14T19:59:18.596Z,13.07
2022-12-14T20:01:48.977Z,12.00
2022-12-14T20:04:18.902Z,11.07
2022-12-14T20:06:48.278Z,14.00
2022-12-14T20:09:18.888Z,13.63
2022-12-14T20:11:48.683Z,16.65
2022-12-14T20:14:18.014Z,21.08
2022-12-14T20:16:47.672Z,20.95
2022-12-14T20:19:16.999Z,18.35
2022-12-14T20:21:46.305Z,15.77
2022-12-14T20:24:17.702Z,18.73
2022-12-14T20:26:47.065Z,17.63
2022-12-14T20:29:18.664Z,18.83
2022-12-14T20:31:47.981Z,18.95
2022-12-14T20:34:17.469Z,16.40
2022-12-14T20:36:46.735Z,15.68
2022-12-14T20:39:16.001Z,15.55
2022-12-14T20:41:45.271Z,14.52
2022-12-14T20:44:16.240Z,16.13
2022-12-14T20:46:46.810Z,15.00
2022-12-14T20:49:17.634Z,13.43
2022-12-14T20:51:47.507Z,15.07
2022-12-14T20:54:17.904Z,13.68
2022-12-14T20:56:49.352Z,13.98
2022-12-14T20:59:19.250Z,14.82
2022-12-14T21:01:55.094Z,16.63
2022-12-14T21:04:25.367Z,13.57
2022-12-14T21:06:54.709Z,14.82
2022-12-14T21:09:24.051Z,12.98
2022-12-14T21:12:06.265Z,12.20
2022-12-14T21:14:42.401Z,11.98
2022-12-14T21:17:12.289Z,10.40
2022-12-14T21:19:42.110Z,10.07
2022-12-14T21:22:13.151Z,8.18
2022-12-14T21:27:32.880Z,9.18
2022-12-14T21:30:03.395Z,9.63
2022-12-14T21:32:32.824Z,8.02
2022-12-14T21:35:02.295Z,9.77
2022-12-14T21:37:32.308Z,11.77
2022-12-14T21:40:03.924Z,10.52
2022-12-14T21:42:31.040Z,10.18
2022-12-14T21:45:00.487Z,10.95
2022-12-14T21:47:31.233Z,10.93
2022-12-14T21:50:00.788Z,12.38
2022-12-14T21:52:30.557Z,11.80
2022-12-14T21:55:00.899Z,11.18
2022-12-14T21:57:42.697Z,11.15
2022-12-14T22:00:13.197Z,10.23
2022-12-14T22:02:42.932Z,10.65
2022-12-14T22:05:13.227Z,11.32
2022-12-14T22:07:42.608Z,10.23
2022-12-14T22:10:11.893Z,10.57
2022-12-14T22:12:41.143Z,10.55
2022-12-14T22:15:10.662Z,10.40
2022-12-14T22:17:40.026Z,11.60
2022-12-14T22:20:09.629Z,10.80
2022-12-14T22:22:38.952Z,11.13
2022-12-14T22:25:08.402Z,11.20
2022-12-14T22:27:37.636Z,11.50
2022-12-14T22:30:07.379Z,10.85
2022-12-14T22:32:36.656Z,11.52
2022-12-14T22:35:06.012Z,11.23
2022-12-14T22:37:35.677Z,11.35
2022-12-14T22:40:04.898Z,11.30
2022-12-14T22:42:34.179Z,14.73
2022-12-14T22:45:03.416Z,13.13
2022-12-14T22:47:32.670Z,10.95
2022-12-14T22:50:01.927Z,12.48
2022-12-14T22:52:31.905Z,12.02
2022-12-14T22:55:01.176Z,13.73
2022-12-14T22:57:30.782Z,13.07
2022-12-14T23:00:03.219Z,11.82
2022-12-14T23:02:32.917Z,13.48
2022-12-14T23:05:02.282Z,11.25
2022-12-14T23:07:31.570Z,10.90
2022-12-14T23:10:13.271Z,13.43
2022-12-14T23:12:55.500Z,10.63
2022-12-14T23:15:37.251Z,11.68
2022-12-14T23:18:20.660Z,12.05
2022-12-14T23:21:02.435Z,12.60
2022-12-14T23:23:44.140Z,11.80
2022-12-14T23:26:25.872Z,10.68
2022-12-14T23:29:07.652Z,11.88
2022-12-14T23:31:52.402Z,11.63
2022-12-14T23:34:34.188Z,10.98
2022-12-14T23:37:20.239Z,10.15
2022-12-14T23:40:02.820Z,10.63
2022-12-14T23:42:44.548Z,8.60
2022-12-14T23:45:26.246Z,9.18
2022-12-14T23:48:11.072Z,10.32
2022-12-14T23:50:52.798Z,9.43
2022-12-14T23:53:34.714Z,9.30
2022-12-14T23:56:16.606Z,10.10
2022-12-14T23:58:58.367Z,9.85
